sensor_id;sensor_type;location;lat;lon;timestamp;temperature;humidity
32706;DHT22;19094;50.972;3.538;2023-03-14T00:00:34;15.90;59.00
32706;DHT22;19094;50.972;3.538;2023-03-14T00:03:00;15.90;59.00
32706;DHT22;19094;50.972;3.538;2023-03-14T00:05:26;15.90;59.10
32706;DHT22;19094;50.972;3.538;2023-03-14T00:07:52;15.90;59.20
32706;DHT22;19094;50.972;3.538;2023-03-14T00:10:17;15.90;59.40
32706;DHT22;19094;50.972;3.538;2023-03-14T00:12:43;15.80;59.20
32706;DHT22;19094;50.972;3.538;2023-03-14T00:15:10;15.80;59.30
32706;DHT22;19094;50.972;3.538;2023-03-14T00:17:36;15.80;59.30
32706;DHT22;19094;50.972;3.538;2023-03-14T00:20:03;15.80;59.40
32706;DHT22;19094;50.972;3.538;2023-03-14T00:22:34;15.70;59.50
32706;DHT22;19094;50.972;3.538;2023-03-14T00:25:00;15.70;59.50
32706;DHT22;19094;50.972;3.538;2023-03-14T00:27:26;15.70;59.60
32706;DHT22;19094;50.972;3.538;2023-03-14T00:29:52;15.70;59.70
32706;DHT22;19094;50.972;3.538;2023-03-14T00:32:17;15.70;59.80
32706;DHT22;19094;50.972;3.538;2023-03-14T00:34:43;15.70;60.00
32706;DHT22;19094;50.972;3.538;2023-03-14T00:37:09;15.60;60.00
32706;DHT22;19094;50.972;3.538;2023-03-14T00:39:34;15.60;60.10
32706;DHT22;19094;50.972;3.538;2023-03-14T00:42:00;15.60;60.10
32706;DHT22;19094;50.972;3.538;2023-03-14T00:44:26;15.60;60.30
32706;DHT22;19094;50.972;3.538;2023-03-14T00:46:52;15.60;60.30
32706;DHT22;19094;50.972;3.538;2023-03-14T00:49:17;15.60;60.30
32706;DHT22;19094;50.972;3.538;2023-03-14T00:51:43;15.60;60.40
32706;DHT22;19094;50.972;3.538;2023-03-14T00:54:09;15.60;60.30
32706;DHT22;19094;50.972;3.538;2023-03-14T00:56:35;15.60;60.40
32706;DHT22;19094;50.972;3.538;2023-03-14T00:59:00;15.60;60.50
32706;DHT22;19094;50.972;3.538;2023-03-14T01:01:26;15.50;60.50
32706;DHT22;19094;50.972;3.538;2023-03-14T01:03:53;15.50;60.60
32706;DHT22;19094;50.972;3.538;2023-03-14T01:06:23;15.60;60.70
32706;DHT22;19094;50.972;3.538;2023-03-14T01:08:49;15.50;60.60
32706;DHT22;19094;50.972;3.538;2023-03-14T01:11:30;15.50;60.80
32706;DHT22;19094;50.972;3.538;2023-03-14T01:13:56;15.50;60.80
32706;DHT22;19094;50.972;3.538;2023-03-14T01:16:23;15.50;60.90
32706;DHT22;19094;50.972;3.538;2023-03-14T01:18:50;15.50;61.00
32706;DHT22;19094;50.972;3.538;2023-03-14T01:21:27;15.40;61.10
32706;DHT22;19094;50.972;3.538;2023-03-14T01:23:55;15.50;61.10
32706;DHT22;19094;50.972;3.538;2023-03-14T01:26:23;15.50;61.20
32706;DHT22;19094;50.972;3.538;2023-03-14T01:28:52;15.40;61.20
32706;DHT22;19094;50.972;3.538;2023-03-14T01:31:18;15.40;61.30
32706;DHT22;19094;50.972;3.538;2023-03-14T01:33:46;15.40;61.50
32706;DHT22;19094;50.972;3.538;2023-03-14T01:36:12;15.40;61.50
32706;DHT22;19094;50.972;3.538;2023-03-14T01:38:38;15.40;61.50
32706;DHT22;19094;50.972;3.538;2023-03-14T01:41:06;15.40;61.70
32706;DHT22;19094;50.972;3.538;2023-03-14T01:43:32;15.30;61.70
32706;DHT22;19094;50.972;3.538;2023-03-14T01:48:37;15.40;61.70
32706;DHT22;19094;50.972;3.538;2023-03-14T01:51:08;15.40;61.70
32706;DHT22;19094;50.972;3.538;2023-03-14T01:53:35;15.40;61.80
32706;DHT22;19094;50.972;3.538;2023-03-14T01:56:02;15.40;62.40
32706;DHT22;19094;50.972;3.538;2023-03-14T01:58:30;15.40;61.70
32706;DHT22;19094;50.972;3.538;2023-03-14T02:01:01;15.40;61.70
32706;DHT22;19094;50.972;3.538;2023-03-14T02:03:28;15.30;61.70
32706;DHT22;19094;50.972;3.538;2023-03-14T02:05:58;15.40;61.80
32706;DHT22;19094;50.972;3.538;2023-03-14T02:08:26;15.40;61.70
32706;DHT22;19094;50.972;3.538;2023-03-14T02:10:53;15.40;61.70
32706;DHT22;19094;50.972;3.538;2023-03-14T02:13:20;15.40;61.70
32706;DHT22;19094;50.972;3.538;2023-03-14T02:15:47;15.40;61.60
32706;DHT22;19094;50.972;3.538;2023-03-14T02:18:14;15.40;61.70
32706;DHT22;19094;50.972;3.538;2023-03-14T02:24:13;15.40;62.10
32706;DHT22;19094;50.972;3.538;2023-03-14T02:29:34;15.30;62.60
32706;DHT22;19094;50.972;3.538;2023-03-14T02:32:01;15.30;62.50
32706;DHT22;19094;50.972;3.538;2023-03-14T02:34:27;15.30;62.60
32706;DHT22;19094;50.972;3.538;2023-03-14T02:36:53;15.30;62.60
32706;DHT22;19094;50.972;3.538;2023-03-14T02:39:36;15.30;62.70
32706;DHT22;19094;50.972;3.538;2023-03-14T02:42:03;15.30;62.70
32706;DHT22;19094;50.972;3.538;2023-03-14T02:44:29;15.30;62.90
32706;DHT22;19094;50.972;3.538;2023-03-14T02:46:55;15.30;63.10
32706;DHT22;19094;50.972;3.538;2023-03-14T02:49:21;15.20;63.20
32706;DHT22;19094;50.972;3.538;2023-03-14T02:51:47;15.30;63.10
32706;DHT22;19094;50.972;3.538;2023-03-14T02:54:15;15.30;63.30
32706;DHT22;19094;50.972;3.538;2023-03-14T02:56:40;15.30;63.40
32706;DHT22;19094;50.972;3.538;2023-03-14T02:59:06;15.30;63.50
32706;DHT22;19094;50.972;3.538;2023-03-14T03:01:33;15.30;63.40
32706;DHT22;19094;50.972;3.538;2023-03-14T03:03:59;15.30;63.80
32706;DHT22;19094;50.972;3.538;2023-03-14T03:06:25;15.30;63.60
32706;DHT22;19094;50.972;3.538;2023-03-14T03:08:51;15.20;63.70
32706;DHT22;19094;50.972;3.538;2023-03-14T03:11:17;15.20;64.00
32706;DHT22;19094;50.972;3.538;2023-03-14T03:13:43;15.20;63.90
32706;DHT22;19094;50.972;3.538;2023-03-14T03:16:08;15.20;64.00
32706;DHT22;19094;50.972;3.538;2023-03-14T03:18:34;15.20;64.00
32706;DHT22;19094;50.972;3.538;2023-03-14T03:21:04;15.20;64.10
32706;DHT22;19094;50.972;3.538;2023-03-14T03:23:30;15.20;64.30
32706;DHT22;19094;50.972;3.538;2023-03-14T03:25:56;15.20;64.30
32706;DHT22;19094;50.972;3.538;2023-03-14T03:28:21;15.20;64.50
32706;DHT22;19094;50.972;3.538;2023-03-14T03:30:47;15.20;64.30
32706;DHT22;19094;50.972;3.538;2023-03-14T03:33:13;15.10;64.30
32706;DHT22;19094;50.972;3.538;2023-03-14T03:35:48;15.10;64.50
32706;DHT22;19094;50.972;3.538;2023-03-14T03:38:14;15.10;64.30
32706;DHT22;19094;50.972;3.538;2023-03-14T03:40:40;15.10;64.50
32706;DHT22;19094;50.972;3.538;2023-03-14T03:43:06;15.10;64.60
32706;DHT22;19094;50.972;3.538;2023-03-14T03:45:32;15.10;64.90
32706;DHT22;19094;50.972;3.538;2023-03-14T03:47:57;15.10;64.90
32706;DHT22;19094;50.972;3.538;2023-03-14T03:50:23;15.10;64.70
32706;DHT22;19094;50.972;3.538;2023-03-14T03:52:49;15.10;66.00
32706;DHT22;19094;50.972;3.538;2023-03-14T03:55:14;15.20;65.20
32706;DHT22;19094;50.972;3.538;2023-03-14T03:57:40;15.20;65.30
32706;DHT22;19094;50.972;3.538;2023-03-14T04:00:06;15.10;65.40
32706;DHT22;19094;50.972;3.538;2023-03-14T04:02:34;15.10;65.60
32706;DHT22;19094;50.972;3.538;2023-03-14T04:05:00;15.00;65.20
32706;DHT22;19094;50.972;3.538;2023-03-14T04:07:25;15.00;65.50
32706;DHT22;19094;50.972;3.538;2023-03-14T04:09:51;15.00;65.70
32706;DHT22;19094;50.972;3.538;2023-03-14T04:12:17;15.10;66.20
32706;DHT22;19094;50.972;3.538;2023-03-14T04:14:42;15.10;65.70
32706;DHT22;19094;50.972;3.538;2023-03-14T04:17:08;15.00;65.80
32706;DHT22;19094;50.972;3.538;2023-03-14T04:19:34;15.00;66.00
32706;DHT22;19094;50.972;3.538;2023-03-14T04:21:59;15.00;65.90
32706;DHT22;19094;50.972;3.538;2023-03-14T04:24:25;15.00;65.80
32706;DHT22;19094;50.972;3.538;2023-03-14T04:26:51;15.10;66.20
32706;DHT22;19094;50.972;3.538;2023-03-14T04:29:16;15.00;65.80
32706;DHT22;19094;50.972;3.538;2023-03-14T04:31:42;15.00;66.00
32706;DHT22;19094;50.972;3.538;2023-03-14T04:34:08;15.00;66.00
32706;DHT22;19094;50.972;3.538;2023-03-14T04:36:33;15.00;66.00
32706;DHT22;19094;50.972;3.538;2023-03-14T04:38:59;15.00;65.90
32706;DHT22;19094;50.972;3.538;2023-03-14T04:41:25;15.00;66.00
32706;DHT22;19094;50.972;3.538;2023-03-14T04:43:50;15.00;65.80
32706;DHT22;19094;50.972;3.538;2023-03-14T04:46:16;15.00;65.60
32706;DHT22;19094;50.972;3.538;2023-03-14T04:48:42;15.00;65.60
32706;DHT22;19094;50.972;3.538;2023-03-14T04:51:08;15.10;65.40
32706;DHT22;19094;50.972;3.538;2023-03-14T04:53:33;15.10;65.20
32706;DHT22;19094;50.972;3.538;2023-03-14T04:56:01;15.10;65.30
32706;DHT22;19094;50.972;3.538;2023-03-14T04:58:26;15.10;65.30
32706;DHT22;19094;50.972;3.538;2023-03-14T05:00:52;15.10;65.20
32706;DHT22;19094;50.972;3.538;2023-03-14T05:03:18;15.00;65.30
32706;DHT22;19094;50.972;3.538;2023-03-14T05:05:44;15.10;65.30
32706;DHT22;19094;50.972;3.538;2023-03-14T05:08:11;15.00;65.30
32706;DHT22;19094;50.972;3.538;2023-03-14T05:10:36;15.00;65.60
32706;DHT22;19094;50.972;3.538;2023-03-14T05:13:02;15.00;65.60
32706;DHT22;19094;50.972;3.538;2023-03-14T05:15:28;14.90;65.80
32706;DHT22;19094;50.972;3.538;2023-03-14T05:17:54;14.90;65.90
32706;DHT22;19094;50.972;3.538;2023-03-14T05:20:20;14.90;65.90
32706;DHT22;19094;50.972;3.538;2023-03-14T05:22:46;15.00;66.00
32706;DHT22;19094;50.972;3.538;2023-03-14T05:25:12;14.90;66.10
32706;DHT22;19094;50.972;3.538;2023-03-14T05:27:38;14.90;66.10
32706;DHT22;19094;50.972;3.538;2023-03-14T05:30:05;14.90;66.00
32706;DHT22;19094;50.972;3.538;2023-03-14T05:32:31;14.90;66.00
32706;DHT22;19094;50.972;3.538;2023-03-14T05:34:57;14.90;66.40
32706;DHT22;19094;50.972;3.538;2023-03-14T05:37:25;14.90;66.30
32706;DHT22;19094;50.972;3.538;2023-03-14T05:39:51;14.90;65.80
32706;DHT22;19094;50.972;3.538;2023-03-14T05:42:17;14.80;65.80
32706;DHT22;19094;50.972;3.538;2023-03-14T05:44:42;14.80;65.70
32706;DHT22;19094;50.972;3.538;2023-03-14T05:47:08;14.80;65.70
32706;DHT22;19094;50.972;3.538;2023-03-14T05:49:34;14.80;66.00
32706;DHT22;19094;50.972;3.538;2023-03-14T05:51:59;14.70;66.20
32706;DHT22;19094;50.972;3.538;2023-03-14T05:54:25;14.70;66.00
32706;DHT22;19094;50.972;3.538;2023-03-14T05:56:51;14.70;66.10
32706;DHT22;19094;50.972;3.538;2023-03-14T05:59:16;14.70;65.80
32706;DHT22;19094;50.972;3.538;2023-03-14T06:01:42;14.70;65.60
32706;DHT22;19094;50.972;3.538;2023-03-14T06:04:08;14.70;65.80
32706;DHT22;19094;50.972;3.538;2023-03-14T06:06:33;14.70;65.90
32706;DHT22;19094;50.972;3.538;2023-03-14T06:08:59;14.70;65.90
32706;DHT22;19094;50.972;3.538;2023-03-14T06:11:25;14.60;65.80
32706;DHT22;19094;50.972;3.538;2023-03-14T06:13:51;14.60;66.00
32706;DHT22;19094;50.972;3.538;2023-03-14T06:16:16;14.60;66.20
32706;DHT22;19094;50.972;3.538;2023-03-14T06:18:42;14.60;65.90
32706;DHT22;19094;50.972;3.538;2023-03-14T06:21:08;14.60;66.00
32706;DHT22;19094;50.972;3.538;2023-03-14T06:23:33;14.60;65.80
32706;DHT22;19094;50.972;3.538;2023-03-14T06:25:59;14.60;66.10
32706;DHT22;19094;50.972;3.538;2023-03-14T06:28:25;14.50;65.90
32706;DHT22;19094;50.972;3.538;2023-03-14T06:30:50;14.50;66.10
32706;DHT22;19094;50.972;3.538;2023-03-14T06:33:16;14.50;66.20
32706;DHT22;19094;50.972;3.538;2023-03-14T06:35:42;14.50;66.20
32706;DHT22;19094;50.972;3.538;2023-03-14T06:38:07;14.50;66.20
32706;DHT22;19094;50.972;3.538;2023-03-14T06:40:33;14.50;66.20
32706;DHT22;19094;50.972;3.538;2023-03-14T06:42:59;14.40;66.10
32706;DHT22;19094;50.972;3.538;2023-03-14T06:45:24;14.40;66.30
32706;DHT22;19094;50.972;3.538;2023-03-14T06:47:50;14.40;66.20
32706;DHT22;19094;50.972;3.538;2023-03-14T06:50:16;14.40;66.10
32706;DHT22;19094;50.972;3.538;2023-03-14T06:52:42;14.40;65.70
32706;DHT22;19094;50.972;3.538;2023-03-14T06:55:14;14.40;65.30
32706;DHT22;19094;50.972;3.538;2023-03-14T06:57:39;14.40;65.10
32706;DHT22;19094;50.972;3.538;2023-03-14T07:00:06;14.30;65.70
32706;DHT22;19094;50.972;3.538;2023-03-14T07:02:32;14.30;66.10
32706;DHT22;19094;50.972;3.538;2023-03-14T07:04:57;14.20;66.40
32706;DHT22;19094;50.972;3.538;2023-03-14T07:07:23;14.20;66.50
32706;DHT22;19094;50.972;3.538;2023-03-14T07:09:48;14.20;66.40
32706;DHT22;19094;50.972;3.538;2023-03-14T07:12:14;14.10;66.60
32706;DHT22;19094;50.972;3.538;2023-03-14T07:14:40;14.10;66.50
32706;DHT22;19094;50.972;3.538;2023-03-14T07:17:05;14.10;66.40
32706;DHT22;19094;50.972;3.538;2023-03-14T07:19:31;14.10;66.40
32706;DHT22;19094;50.972;3.538;2023-03-14T07:21:57;14.10;66.50
32706;DHT22;19094;50.972;3.538;2023-03-14T07:24:23;14.10;66.50
32706;DHT22;19094;50.972;3.538;2023-03-14T07:26:48;14.10;66.70
32706;DHT22;19094;50.972;3.538;2023-03-14T07:29:14;14.00;66.30
32706;DHT22;19094;50.972;3.538;2023-03-14T07:31:40;14.00;66.50
32706;DHT22;19094;50.972;3.538;2023-03-14T07:34:06;14.00;66.70
32706;DHT22;19094;50.972;3.538;2023-03-14T07:36:31;14.00;66.40
32706;DHT22;19094;50.972;3.538;2023-03-14T07:38:57;14.00;66.50
32706;DHT22;19094;50.972;3.538;2023-03-14T07:41:23;14.10;66.50
32706;DHT22;19094;50.972;3.538;2023-03-14T07:43:49;14.00;66.00
32706;DHT22;19094;50.972;3.538;2023-03-14T07:46:15;14.00;66.00
32706;DHT22;19094;50.972;3.538;2023-03-14T07:48:41;14.00;66.30
32706;DHT22;19094;50.972;3.538;2023-03-14T07:51:07;13.90;66.40
32706;DHT22;19094;50.972;3.538;2023-03-14T07:53:33;14.00;66.70
32706;DHT22;19094;50.972;3.538;2023-03-14T07:55:58;13.90;66.90
32706;DHT22;19094;50.972;3.538;2023-03-14T07:58:24;13.90;67.00
32706;DHT22;19094;50.972;3.538;2023-03-14T08:00:51;13.90;67.20
32706;DHT22;19094;50.972;3.538;2023-03-14T08:03:17;13.90;66.80
32706;DHT22;19094;50.972;3.538;2023-03-14T08:05:43;13.90;66.70
32706;DHT22;19094;50.972;3.538;2023-03-14T08:08:09;13.90;66.70
32706;DHT22;19094;50.972;3.538;2023-03-14T08:10:35;13.90;66.40
32706;DHT22;19094;50.972;3.538;2023-03-14T08:13:01;13.90;66.40
32706;DHT22;19094;50.972;3.538;2023-03-14T08:15:28;13.80;66.50
32706;DHT22;19094;50.972;3.538;2023-03-14T08:17:55;13.90;66.20
32706;DHT22;19094;50.972;3.538;2023-03-14T08:20:23;13.90;66.50
32706;DHT22;19094;50.972;3.538;2023-03-14T08:22:49;13.80;66.30
32706;DHT22;19094;50.972;3.538;2023-03-14T08:25:15;13.80;66.50
32706;DHT22;19094;50.972;3.538;2023-03-14T08:27:42;13.80;66.60
32706;DHT22;19094;50.972;3.538;2023-03-14T08:30:11;13.80;66.50
32706;DHT22;19094;50.972;3.538;2023-03-14T08:32:37;13.90;66.00
32706;DHT22;19094;50.972;3.538;2023-03-14T08:35:04;13.80;66.30
32706;DHT22;19094;50.972;3.538;2023-03-14T08:37:32;13.80;66.20
32706;DHT22;19094;50.972;3.538;2023-03-14T08:39:58;13.70;66.20
32706;DHT22;19094;50.972;3.538;2023-03-14T08:42:24;13.70;66.30
32706;DHT22;19094;50.972;3.538;2023-03-14T08:44:51;13.70;66.20
32706;DHT22;19094;50.972;3.538;2023-03-14T08:47:17;13.80;67.50
32706;DHT22;19094;50.972;3.538;2023-03-14T08:49:43;13.70;66.80
32706;DHT22;19094;50.972;3.538;2023-03-14T08:52:08;13.70;65.40
32706;DHT22;19094;50.972;3.538;2023-03-14T08:54:34;13.60;65.30
32706;DHT22;19094;50.972;3.538;2023-03-14T08:57:00;13.70;65.20
32706;DHT22;19094;50.972;3.538;2023-03-14T08:59:26;13.70;65.50
32706;DHT22;19094;50.972;3.538;2023-03-14T09:01:51;13.70;65.60
32706;DHT22;19094;50.972;3.538;2023-03-14T09:04:17;13.70;65.50
32706;DHT22;19094;50.972;3.538;2023-03-14T09:06:43;13.70;65.60
32706;DHT22;19094;50.972;3.538;2023-03-14T09:09:08;13.70;65.40
32706;DHT22;19094;50.972;3.538;2023-03-14T09:11:34;13.70;65.10
32706;DHT22;19094;50.972;3.538;2023-03-14T09:14:00;13.70;65.10
32706;DHT22;19094;50.972;3.538;2023-03-14T09:16:26;13.70;64.80
32706;DHT22;19094;50.972;3.538;2023-03-14T09:18:52;13.70;65.10
32706;DHT22;19094;50.972;3.538;2023-03-14T09:21:23;13.70;64.90
32706;DHT22;19094;50.972;3.538;2023-03-14T09:23:48;13.70;65.20
32706;DHT22;19094;50.972;3.538;2023-03-14T09:26:14;13.60;65.20
32706;DHT22;19094;50.972;3.538;2023-03-14T09:28:40;13.70;65.30
32706;DHT22;19094;50.972;3.538;2023-03-14T09:31:11;13.60;65.60
32706;DHT22;19094;50.972;3.538;2023-03-14T09:33:37;13.80;66.10
32706;DHT22;19094;50.972;3.538;2023-03-14T09:36:04;13.80;66.80
32706;DHT22;19094;50.972;3.538;2023-03-14T09:38:30;13.80;64.50
32706;DHT22;19094;50.972;3.538;2023-03-14T09:40:59;13.80;65.60
32706;DHT22;19094;50.972;3.538;2023-03-14T09:43:26;13.80;65.30
32706;DHT22;19094;50.972;3.538;2023-03-14T09:45:54;13.80;65.30
32706;DHT22;19094;50.972;3.538;2023-03-14T09:48:27;13.80;65.60
32706;DHT22;19094;50.972;3.538;2023-03-14T09:50:55;13.90;66.00
32706;DHT22;19094;50.972;3.538;2023-03-14T09:53:26;13.90;66.20
32706;DHT22;19094;50.972;3.538;2023-03-14T09:55:53;13.90;65.60
32706;DHT22;19094;50.972;3.538;2023-03-14T09:58:22;13.90;64.60
32706;DHT22;19094;50.972;3.538;2023-03-14T10:00:50;13.90;65.70
32706;DHT22;19094;50.972;3.538;2023-03-14T10:03:32;13.80;65.40
32706;DHT22;19094;50.972;3.538;2023-03-14T10:05:58;13.90;65.60
32706;DHT22;19094;50.972;3.538;2023-03-14T10:08:24;13.80;65.60
32706;DHT22;19094;50.972;3.538;2023-03-14T10:10:50;13.80;65.60
32706;DHT22;19094;50.972;3.538;2023-03-14T10:13:20;13.90;65.40
32706;DHT22;19094;50.972;3.538;2023-03-14T10:18:23;13.90;65.50
32706;DHT22;19094;50.972;3.538;2023-03-14T10:20:51;13.80;65.40
32706;DHT22;19094;50.972;3.538;2023-03-14T10:23:29;13.80;65.40
32706;DHT22;19094;50.972;3.538;2023-03-14T10:26:14;13.70;65.30
32706;DHT22;19094;50.972;3.538;2023-03-14T10:28:47;13.70;63.20
32706;DHT22;19094;50.972;3.538;2023-03-14T10:31:14;13.70;64.90
32706;DHT22;19094;50.972;3.538;2023-03-14T10:33:40;13.70;65.00
32706;DHT22;19094;50.972;3.538;2023-03-14T10:38:46;13.60;64.60
32706;DHT22;19094;50.972;3.538;2023-03-14T10:41:25;13.60;65.90
32706;DHT22;19094;50.972;3.538;2023-03-14T10:43:54;13.50;65.50
32706;DHT22;19094;50.972;3.538;2023-03-14T10:46:24;13.50;65.70
32706;DHT22;19094;50.972;3.538;2023-03-14T10:48:51;13.40;66.00
32706;DHT22;19094;50.972;3.538;2023-03-14T10:51:27;13.40;65.80
32706;DHT22;19094;50.972;3.538;2023-03-14T10:54:02;13.40;66.00
32706;DHT22;19094;50.972;3.538;2023-03-14T10:56:34;13.40;66.00
32706;DHT22;19094;50.972;3.538;2023-03-14T10:59:02;13.40;66.10
32706;DHT22;19094;50.972;3.538;2023-03-14T11:01:59;13.40;66.40
32706;DHT22;19094;50.972;3.538;2023-03-14T11:09:58;13.40;66.60
32706;DHT22;19094;50.972;3.538;2023-03-14T11:23:22;13.30;67.10
32706;DHT22;19094;50.972;3.538;2023-03-14T11:28:50;13.30;66.50
32706;DHT22;19094;50.972;3.538;2023-03-14T11:31:19;13.30;67.00
32706;DHT22;19094;50.972;3.538;2023-03-14T11:36:52;13.40;67.00
32706;DHT22;19094;50.972;3.538;2023-03-14T11:39:19;13.40;66.80
32706;DHT22;19094;50.972;3.538;2023-03-14T11:41:47;13.40;66.80
32706;DHT22;19094;50.972;3.538;2023-03-14T11:49:51;13.40;66.80
32706;DHT22;19094;50.972;3.538;2023-03-14T11:52:34;13.40;66.50
32706;DHT22;19094;50.972;3.538;2023-03-14T11:55:24;13.40;66.90
32706;DHT22;19094;50.972;3.538;2023-03-14T11:57:55;13.40;66.40
32706;DHT22;19094;50.972;3.538;2023-03-14T12:00:23;13.30;66.80
32706;DHT22;19094;50.972;3.538;2023-03-14T12:03:03;13.30;66.70
32706;DHT22;19094;50.972;3.538;2023-03-14T12:11:09;13.30;66.90
32706;DHT22;19094;50.972;3.538;2023-03-14T12:13:38;13.30;66.90
32706;DHT22;19094;50.972;3.538;2023-03-14T12:16:48;13.30;67.30
32706;DHT22;19094;50.972;3.538;2023-03-14T12:18:54;13.30;67.20
32706;DHT22;19094;50.972;3.538;2023-03-14T12:21:41;13.30;67.10
32706;DHT22;19094;50.972;3.538;2023-03-14T12:24:22;13.30;67.00
32706;DHT22;19094;50.972;3.538;2023-03-14T12:26:54;13.30;67.10
32706;DHT22;19094;50.972;3.538;2023-03-14T12:29:20;13.30;67.00
32706;DHT22;19094;50.972;3.538;2023-03-14T12:32:09;13.40;67.20
32706;DHT22;19094;50.972;3.538;2023-03-14T12:34:44;13.40;67.40
32706;DHT22;19094;50.972;3.538;2023-03-14T12:37:49;13.40;66.90
32706;DHT22;19094;50.972;3.538;2023-03-14T12:43:30;13.40;66.90
32706;DHT22;19094;50.972;3.538;2023-03-14T12:51:37;13.50;66.80
32706;DHT22;19094;50.972;3.538;2023-03-14T12:59:38;13.50;66.80
32706;DHT22;19094;50.972;3.538;2023-03-14T13:07:28;13.50;67.30
32706;DHT22;19094;50.972;3.538;2023-03-14T13:15:31;13.60;66.70
32706;DHT22;19094;50.972;3.538;2023-03-14T13:18:07;13.60;66.50
32706;DHT22;19094;50.972;3.538;2023-03-14T13:20:48;13.60;66.50
32706;DHT22;19094;50.972;3.538;2023-03-14T13:23:27;13.60;67.00
32706;DHT22;19094;50.972;3.538;2023-03-14T13:25:54;13.70;66.50
32706;DHT22;19094;50.972;3.538;2023-03-14T13:28:20;13.80;66.30
32706;DHT22;19094;50.972;3.538;2023-03-14T13:30:48;13.80;66.30
32706;DHT22;19094;50.972;3.538;2023-03-14T13:33:17;13.80;66.30
32706;DHT22;19094;50.972;3.538;2023-03-14T13:35:55;13.80;66.00
32706;DHT22;19094;50.972;3.538;2023-03-14T13:38:26;13.80;66.40
32706;DHT22;19094;50.972;3.538;2023-03-14T13:40:55;13.80;66.00
32706;DHT22;19094;50.972;3.538;2023-03-14T13:48:28;13.70;65.70
32706;DHT22;19094;50.972;3.538;2023-03-14T13:51:06;13.70;65.40
32706;DHT22;19094;50.972;3.538;2023-03-14T13:54:00;13.70;65.90
32706;DHT22;19094;50.972;3.538;2023-03-14T13:56:28;13.70;65.80
32706;DHT22;19094;50.972;3.538;2023-03-14T13:58:55;13.60;65.80
32706;DHT22;19094;50.972;3.538;2023-03-14T14:01:32;13.60;65.40
32706;DHT22;19094;50.972;3.538;2023-03-14T14:04:06;13.60;65.50
32706;DHT22;19094;50.972;3.538;2023-03-14T14:06:36;13.50;65.20
32706;DHT22;19094;50.972;3.538;2023-03-14T14:09:29;13.50;64.90
32706;DHT22;19094;50.972;3.538;2023-03-14T14:11:59;13.40;64.70
32706;DHT22;19094;50.972;3.538;2023-03-14T14:14:36;13.40;65.00
32706;DHT22;19094;50.972;3.538;2023-03-14T14:17:07;13.40;65.00
32706;DHT22;19094;50.972;3.538;2023-03-14T14:19:34;13.40;64.80
32706;DHT22;19094;50.972;3.538;2023-03-14T14:22:01;13.30;64.50
32706;DHT22;19094;50.972;3.538;2023-03-14T14:24:32;13.30;63.90
32706;DHT22;19094;50.972;3.538;2023-03-14T14:29:41;13.40;63.70
32706;DHT22;19094;50.972;3.538;2023-03-14T14:34:55;13.30;63.90
32706;DHT22;19094;50.972;3.538;2023-03-14T14:39:47;13.30;63.40
32706;DHT22;19094;50.972;3.538;2023-03-14T14:42:19;13.30;63.10
32706;DHT22;19094;50.972;3.538;2023-03-14T14:44:50;13.40;62.70
32706;DHT22;19094;50.972;3.538;2023-03-14T14:47:19;13.30;62.50
32706;DHT22;19094;50.972;3.538;2023-03-14T14:49:51;13.30;62.90
32706;DHT22;19094;50.972;3.538;2023-03-14T14:52:31;13.30;62.60
32706;DHT22;19094;50.972;3.538;2023-03-14T14:54:59;13.40;63.00
32706;DHT22;19094;50.972;3.538;2023-03-14T14:57:48;13.30;62.30
32706;DHT22;19094;50.972;3.538;2023-03-14T15:00:22;13.30;62.10
32706;DHT22;19094;50.972;3.538;2023-03-14T15:02:50;13.30;61.80
32706;DHT22;19094;50.972;3.538;2023-03-14T15:05:22;13.30;62.10
32706;DHT22;19094;50.972;3.538;2023-03-14T15:07:49;13.30;62.20
32706;DHT22;19094;50.972;3.538;2023-03-14T15:10:17;13.30;62.00
32706;DHT22;19094;50.972;3.538;2023-03-14T15:12:43;13.30;61.90
32706;DHT22;19094;50.972;3.538;2023-03-14T15:15:10;13.30;62.10
32706;DHT22;19094;50.972;3.538;2023-03-14T15:17:37;13.30;61.60
32706;DHT22;19094;50.972;3.538;2023-03-14T15:20:04;13.30;61.70
32706;DHT22;19094;50.972;3.538;2023-03-14T15:22:30;13.30;61.70
32706;DHT22;19094;50.972;3.538;2023-03-14T15:24:56;13.30;61.60
32706;DHT22;19094;50.972;3.538;2023-03-14T15:27:22;13.40;61.80
32706;DHT22;19094;50.972;3.538;2023-03-14T15:29:48;13.30;61.20
32706;DHT22;19094;50.972;3.538;2023-03-14T15:32:15;13.40;61.50
32706;DHT22;19094;50.972;3.538;2023-03-14T15:34:42;13.30;61.70
32706;DHT22;19094;50.972;3.538;2023-03-14T15:37:16;13.30;61.50
32706;DHT22;19094;50.972;3.538;2023-03-14T15:39:43;13.30;61.60
32706;DHT22;19094;50.972;3.538;2023-03-14T15:42:09;13.40;61.60
32706;DHT22;19094;50.972;3.538;2023-03-14T15:44:35;13.40;61.00
32706;DHT22;19094;50.972;3.538;2023-03-14T15:47:01;13.30;61.60
32706;DHT22;19094;50.972;3.538;2023-03-14T15:49:27;13.40;61.80
32706;DHT22;19094;50.972;3.538;2023-03-14T15:51:53;13.30;61.90
32706;DHT22;19094;50.972;3.538;2023-03-14T15:54:19;13.40;61.70
32706;DHT22;19094;50.972;3.538;2023-03-14T15:56:45;13.40;61.60
32706;DHT22;19094;50.972;3.538;2023-03-14T15:59:10;13.50;62.60
32706;DHT22;19094;50.972;3.538;2023-03-14T16:01:36;13.50;62.30
32706;DHT22;19094;50.972;3.538;2023-03-14T16:04:02;13.50;62.90
32706;DHT22;19094;50.972;3.538;2023-03-14T16:06:28;13.60;62.70
32706;DHT22;19094;50.972;3.538;2023-03-14T16:08:56;13.60;61.30
32706;DHT22;19094;50.972;3.538;2023-03-14T16:11:22;13.60;61.20
32706;DHT22;19094;50.972;3.538;2023-03-14T16:13:48;13.50;61.00
32706;DHT22;19094;50.972;3.538;2023-03-14T16:16:14;13.60;61.00
32706;DHT22;19094;50.972;3.538;2023-03-14T16:18:40;13.60;61.30
32706;DHT22;19094;50.972;3.538;2023-03-14T16:21:17;13.60;61.00
32706;DHT22;19094;50.972;3.538;2023-03-14T16:23:43;13.50;60.30
32706;DHT22;19094;50.972;3.538;2023-03-14T16:26:12;13.50;61.10
32706;DHT22;19094;50.972;3.538;2023-03-14T16:28:38;13.50;60.80
32706;DHT22;19094;50.972;3.538;2023-03-14T16:31:07;13.50;61.10
32706;DHT22;19094;50.972;3.538;2023-03-14T16:33:34;13.50;61.40
32706;DHT22;19094;50.972;3.538;2023-03-14T16:36:02;13.50;61.00
32706;DHT22;19094;50.972;3.538;2023-03-14T16:38:31;13.50;61.00
32706;DHT22;19094;50.972;3.538;2023-03-14T16:41:05;13.50;61.00
32706;DHT22;19094;50.972;3.538;2023-03-14T16:43:32;13.50;61.30
32706;DHT22;19094;50.972;3.538;2023-03-14T16:46:05;13.50;61.30
32706;DHT22;19094;50.972;3.538;2023-03-14T16:48:31;13.40;61.40
32706;DHT22;19094;50.972;3.538;2023-03-14T16:50:57;13.40;61.40
32706;DHT22;19094;50.972;3.538;2023-03-14T16:53:23;13.40;61.60
32706;DHT22;19094;50.972;3.538;2023-03-14T16:55:51;13.40;61.70
32706;DHT22;19094;50.972;3.538;2023-03-14T16:58:17;13.40;61.50
32706;DHT22;19094;50.972;3.538;2023-03-14T17:00:46;13.40;61.70